Beirne, Arkansas
Current Conditions -  °F | °C
As of 12:56 AM on Saturday 20 Dec 2014 (Local Time) from KADF Reporting Station
Broken Clouds Broken Clouds  
Wind Chill: 42°   Ceiling: 4900
Heat Index: 42°   Visibility: 9mi
Dew Point: 41°   Wind: 3mph
Humidity: 97%   Direction: 40°NE
Pressure: 30.24"   Gusts: NA
Location:  33.89°N, 93.2°W
Report Text: KADF 200656Z AUTO 04003KT 9SM BKN049 06/05 A3024 RMK AO2 T00550050 SLP255
Loading
Personal Weather Stations






























Interactive Weather Map New forecast layout! Learn more

10-Day Weather Forecast

Advertisements
Track Severe Weather on mobile